createdAt,value
2019-02-18T00:01:51.845Z,981.59
2019-02-18T00:02:52.085Z,981.62
2019-02-18T00:04:56.245Z,981.56
2019-02-18T00:05:56.481Z,981.54
2019-02-18T00:07:49.574Z,981.55
2019-02-18T00:08:49.809Z,981.54
2019-02-18T00:10:53.957Z,981.56
2019-02-18T00:11:54.191Z,981.51
2019-02-18T00:13:58.357Z,981.59
2019-02-18T00:14:58.593Z,981.60
2019-02-18T00:17:02.741Z,981.58
2019-02-18T00:18:02.975Z,981.57
2019-02-18T00:20:07.190Z,981.56
2019-02-18T00:21:07.371Z,981.56
2019-02-18T00:23:11.536Z,981.50
2019-02-18T00:24:11.771Z,981.53
2019-02-18T00:26:15.918Z,981.48
2019-02-18T00:27:16.150Z,981.52
2019-02-18T00:29:20.314Z,981.48
2019-02-18T00:30:20.552Z,981.48
2019-02-18T00:32:24.701Z,981.45
2019-02-18T00:33:24.938Z,981.43
2019-02-18T00:35:29.098Z,981.43
2019-02-18T00:36:29.336Z,981.43
2019-02-18T00:38:33.524Z,981.39
2019-02-18T00:39:33.740Z,981.40
2019-02-18T00:41:37.886Z,981.39
2019-02-18T00:42:38.122Z,981.42
2019-02-18T00:44:42.287Z,981.38
2019-02-18T00:45:42.521Z,981.39
2019-02-18T00:47:35.593Z,981.30
2019-02-18T00:48:35.833Z,981.37
2019-02-18T00:50:39.997Z,981.37
2019-02-18T00:51:40.241Z,981.37
2019-02-18T00:53:44.399Z,981.36
2019-02-18T00:54:44.643Z,981.37
2019-02-18T00:56:48.785Z,981.32
2019-02-18T00:57:49.022Z,981.32
2019-02-18T00:59:53.190Z,981.30
2019-02-18T01:00:53.428Z,981.32
2019-02-18T01:02:57.574Z,981.31
2019-02-18T01:03:57.810Z,981.31
2019-02-18T01:06:01.977Z,981.30
2019-02-18T01:07:02.214Z,981.26
2019-02-18T01:09:06.378Z,981.29
2019-02-18T01:10:06.693Z,981.28
2019-02-18T01:12:10.763Z,981.28
2019-02-18T01:13:11.000Z,981.30
2019-02-18T01:15:15.163Z,981.32
2019-02-18T01:16:15.398Z,981.33
2019-02-18T01:18:19.548Z,981.34
2019-02-18T01:19:19.853Z,981.35
2019-02-18T01:21:23.953Z,981.34
2019-02-18T01:22:24.188Z,981.36
2019-02-18T01:24:28.360Z,981.31
2019-02-18T01:25:28.601Z,981.30
2019-02-18T01:27:21.674Z,981.29
2019-02-18T01:28:21.908Z,981.26
2019-02-18T01:30:26.077Z,981.20
2019-02-18T01:31:26.313Z,981.20
2019-02-18T01:33:30.458Z,981.21
2019-02-18T01:34:30.698Z,981.17
2019-02-18T01:36:34.860Z,981.16
2019-02-18T01:37:44.811Z,981.14
2019-02-18T01:39:39.266Z,981.15
2019-02-18T01:40:39.508Z,981.12
2019-02-18T01:42:43.657Z,981.16
2019-02-18T01:43:43.889Z,981.13
2019-02-18T01:45:48.058Z,981.10
2019-02-18T01:46:48.295Z,981.08
2019-02-18T01:48:52.435Z,981.08
2019-02-18T01:49:52.671Z,981.06
2019-02-18T01:51:56.841Z,981.06
2019-02-18T01:52:57.075Z,981.08
2019-02-18T01:55:01.241Z,981.08
2019-02-18T01:56:01.478Z,981.06
2019-02-18T01:57:54.550Z,981.07
2019-02-18T01:58:54.786Z,981.07
2019-02-18T02:00:58.954Z,981.05
2019-02-18T02:01:59.193Z,981.04
2019-02-18T02:04:03.391Z,981.02
2019-02-18T02:05:03.574Z,981.02
2019-02-18T02:07:07.743Z,980.98
2019-02-18T02:08:07.979Z,980.98
2019-02-18T02:10:12.149Z,980.98
2019-02-18T02:11:12.383Z,980.93
2019-02-18T02:13:16.529Z,980.94
2019-02-18T02:14:16.764Z,980.92
2019-02-18T02:16:20.932Z,980.90
2019-02-18T02:17:21.170Z,980.92
2019-02-18T02:19:25.314Z,980.90
2019-02-18T02:20:25.552Z,980.88
2019-02-18T02:22:29.717Z,980.88
2019-02-18T02:23:29.998Z,980.88
2019-02-18T02:25:34.116Z,980.93
2019-02-18T02:26:34.354Z,980.90
2019-02-18T02:28:38.502Z,980.92
2019-02-18T02:29:38.735Z,980.89
2019-02-18T02:31:42.969Z,980.93
2019-02-18T02:32:43.140Z,980.93
2019-02-18T02:34:47.287Z,980.93
2019-02-18T02:35:47.525Z,980.90
2019-02-18T02:37:40.613Z,980.96
2019-02-18T02:38:40.851Z,980.92
2019-02-18T02:40:45.017Z,980.96
2019-02-18T02:41:45.256Z,980.94
2019-02-18T02:43:49.402Z,980.90
2019-02-18T02:44:49.639Z,980.92
2019-02-18T02:46:53.807Z,980.92
2019-02-18T02:47:54.043Z,980.93
2019-02-18T02:49:58.190Z,980.86
2019-02-18T02:50:58.426Z,980.85
2019-02-18T02:53:02.590Z,980.85
2019-02-18T02:54:02.828Z,980.83
2019-02-18T02:56:06.993Z,980.85
2019-02-18T02:57:07.228Z,980.84
2019-02-18T02:59:11.370Z,980.83
2019-02-18T03:00:11.606Z,980.81
2019-02-18T03:02:15.779Z,980.80
2019-02-18T03:03:16.009Z,980.78
2019-02-18T03:05:20.159Z,980.74
2019-02-18T03:06:20.387Z,980.80
2019-02-18T03:08:24.551Z,980.75
2019-02-18T03:09:24.798Z,980.72
2019-02-18T03:11:28.931Z,980.73
2019-02-18T03:12:29.164Z,980.69
2019-02-18T03:14:33.346Z,980.66
2019-02-18T03:15:33.572Z,980.68
2019-02-18T03:17:26.666Z,980.68
2019-02-18T03:18:26.904Z,980.65
2019-02-18T03:20:31.053Z,980.63
2019-02-18T03:21:31.294Z,980.63
2019-02-18T03:23:35.454Z,980.63
2019-02-18T03:24:35.693Z,980.63
2019-02-18T03:26:39.833Z,980.64
2019-02-18T03:27:40.072Z,980.65
2019-02-18T03:29:44.235Z,980.66
2019-02-18T03:30:44.473Z,980.67
2019-02-18T03:32:48.648Z,980.67
2019-02-18T03:33:48.874Z,980.65
2019-02-18T03:35:53.019Z,980.69
2019-02-18T03:36:53.256Z,980.68
2019-02-18T03:38:57.426Z,980.70
2019-02-18T03:39:57.656Z,980.69
2019-02-18T03:42:01.808Z,980.73
2019-02-18T03:43:02.044Z,980.70
2019-02-18T03:45:06.210Z,980.74
2019-02-18T03:46:06.450Z,980.68
2019-02-18T03:47:59.545Z,980.68
2019-02-18T03:48:59.780Z,980.72
2019-02-18T03:51:03.923Z,980.71
2019-02-18T03:52:04.163Z,980.72
2019-02-18T03:54:08.327Z,980.70
2019-02-18T03:55:08.563Z,980.70
2019-02-18T03:57:12.729Z,980.69
2019-02-18T03:58:12.943Z,980.70
2019-02-18T04:00:17.108Z,980.72
2019-02-18T04:01:17.345Z,980.71
2019-02-18T04:03:21.510Z,980.71
2019-02-18T04:04:21.746Z,980.72
2019-02-18T04:06:26.003Z,980.71
2019-02-18T04:07:26.132Z,980.71
2019-02-18T04:09:30.299Z,980.73
2019-02-18T04:10:30.543Z,980.74
2019-02-18T04:12:34.702Z,980.70
2019-02-18T04:13:34.921Z,980.69
2019-02-18T04:15:39.087Z,980.70
2019-02-18T04:16:39.325Z,980.68
2019-02-18T04:18:43.490Z,980.68
2019-02-18T04:19:43.729Z,980.67
2019-02-18T04:21:47.872Z,980.63
2019-02-18T04:22:48.108Z,980.69
2019-02-18T04:24:52.273Z,980.67
2019-02-18T04:25:52.511Z,980.67
2019-02-18T04:27:45.579Z,980.63
2019-02-18T04:28:45.817Z,980.62
2019-02-18T04:30:49.986Z,980.62
2019-02-18T04:31:50.224Z,980.64
2019-02-18T04:33:54.389Z,980.60
2019-02-18T04:34:54.630Z,980.58
2019-02-18T04:36:58.772Z,980.57
2019-02-18T04:37:59.010Z,980.57
2019-02-18T04:40:03.170Z,980.58
2019-02-18T04:41:03.406Z,980.61
2019-02-18T04:43:07.550Z,980.62
2019-02-18T04:44:07.788Z,980.63
2019-02-18T04:46:11.954Z,980.68
2019-02-18T04:47:12.194Z,980.65
2019-02-18T04:49:16.363Z,980.64
2019-02-18T04:50:16.604Z,980.62
2019-02-18T04:52:20.747Z,980.63
2019-02-18T04:53:20.983Z,980.63
2019-02-18T04:55:25.152Z,980.58
2019-02-18T04:56:25.389Z,980.57
2019-02-18T04:58:29.534Z,980.61
2019-02-18T04:59:29.770Z,980.57
2019-02-18T05:01:33.935Z,980.59
2019-02-18T05:02:34.171Z,980.56
2019-02-18T05:04:38.342Z,980.59
2019-02-18T05:05:38.574Z,980.56
2019-02-18T05:07:31.650Z,980.51
2019-02-18T05:08:31.884Z,980.50
2019-02-18T05:10:36.051Z,980.46
2019-02-18T05:11:36.289Z,980.49
2019-02-18T05:13:40.442Z,980.51
2019-02-18T05:14:40.680Z,980.50
2019-02-18T05:16:44.850Z,980.48
2019-02-18T05:17:45.088Z,980.50
2019-02-18T05:19:49.260Z,980.45
2019-02-18T05:20:49.495Z,980.43
2019-02-18T05:22:53.635Z,980.41
2019-02-18T05:23:53.873Z,980.40
2019-02-18T05:25:58.039Z,980.39
2019-02-18T05:26:58.278Z,980.41
2019-02-18T05:29:02.427Z,980.42
2019-02-18T05:30:02.749Z,980.41
2019-02-18T05:32:06.826Z,980.43
2019-02-18T05:33:07.061Z,980.44
2019-02-18T05:35:11.226Z,980.38
2019-02-18T05:36:11.464Z,980.36
2019-02-18T05:38:04.531Z,980.35
2019-02-18T05:39:04.770Z,980.32
2019-02-18T05:41:08.940Z,980.29
2019-02-18T05:42:09.174Z,980.25
2019-02-18T05:44:13.317Z,980.27
2019-02-18T05:45:13.557Z,980.29
2019-02-18T05:47:17.723Z,980.32
2019-02-18T05:48:17.959Z,980.27
2019-02-18T05:50:22.120Z,980.26
2019-02-18T05:51:22.359Z,980.22
2019-02-18T05:53:26.498Z,980.20
2019-02-18T05:54:26.737Z,980.23
2019-02-18T05:56:30.903Z,980.23
2019-02-18T05:57:31.143Z,980.24
2019-02-18T05:59:35.281Z,980.25
2019-02-18T06:00:35.516Z,980.23
2019-02-18T06:02:39.681Z,980.27
2019-02-18T06:03:39.916Z,980.23
2019-02-18T06:05:44.083Z,980.28
2019-02-18T06:06:44.321Z,980.25
2019-02-18T06:08:48.461Z,980.25
2019-02-18T06:09:48.697Z,980.25
2019-02-18T06:11:52.865Z,980.30
2019-02-18T06:12:53.105Z,980.32
2019-02-18T06:14:57.244Z,980.34
2019-02-18T06:15:57.480Z,980.29
2019-02-18T06:17:50.570Z,980.36
2019-02-18T06:18:50.877Z,980.38
2019-02-18T06:20:54.974Z,980.36
2019-02-18T06:21:55.209Z,980.38
2019-02-18T06:23:59.350Z,980.37
2019-02-18T06:24:59.590Z,980.39
2019-02-18T06:27:03.751Z,980.40
2019-02-18T06:28:04.976Z,980.43
2019-02-18T06:30:08.136Z,980.49
2019-02-18T06:31:08.374Z,980.44
2019-02-18T06:33:12.548Z,980.48
2019-02-18T06:34:12.786Z,980.46
2019-02-18T06:36:16.957Z,980.52
2019-02-18T06:37:17.196Z,980.53
2019-02-18T06:39:21.339Z,980.56
2019-02-18T06:40:21.578Z,980.53
2019-02-18T06:42:25.741Z,980.62
2019-02-18T06:43:25.979Z,980.67
2019-02-18T06:45:30.126Z,980.68
2019-02-18T06:46:30.362Z,980.66
2019-02-18T06:48:34.529Z,980.71
2019-02-18T06:49:34.766Z,980.76
2019-02-18T06:51:38.934Z,980.80
2019-02-18T06:52:39.171Z,980.77
2019-02-18T06:54:43.313Z,980.77
2019-02-18T06:55:43.553Z,980.81
2019-02-18T06:57:36.646Z,980.79
2019-02-18T06:58:36.901Z,980.83
2019-02-18T07:00:41.073Z,980.87
2019-02-18T07:01:41.312Z,980.84
2019-02-18T07:03:45.469Z,980.91
2019-02-18T07:04:45.703Z,980.90
2019-02-18T07:06:49.870Z,980.94
2019-02-18T07:07:50.102Z,980.97
2019-02-18T07:09:54.245Z,981.06
2019-02-18T07:10:54.481Z,981.05
2019-02-18T07:12:58.641Z,981.07
2019-02-18T07:13:58.876Z,981.13
2019-02-18T07:16:03.020Z,981.14
2019-02-18T07:17:03.255Z,981.17
2019-02-18T07:19:07.428Z,981.23
2019-02-18T07:20:07.668Z,981.25
2019-02-18T07:22:11.804Z,981.30
2019-02-18T07:23:12.083Z,981.33
2019-02-18T07:25:16.250Z,981.54
2019-02-18T07:26:16.485Z,981.68
2019-02-18T07:28:20.660Z,982.20
2019-02-18T07:29:20.896Z,982.64
2019-02-18T07:31:25.047Z,983.84
2019-02-18T07:32:25.285Z,984.25
2019-02-18T07:34:29.456Z,987.84
2019-02-18T07:35:29.695Z,990.89
2019-02-18T07:37:22.771Z,985.98
2019-02-18T07:38:23.012Z,983.95
2019-02-18T07:40:27.183Z,982.91
2019-02-18T07:41:27.427Z,982.63
2019-02-18T07:43:31.598Z,982.29
2019-02-18T07:44:31.838Z,982.39
2019-02-18T07:46:35.991Z,982.48
2019-02-18T07:47:36.230Z,982.51
2019-02-18T07:49:40.404Z,982.37
2019-02-18T07:50:40.646Z,982.34
2019-02-18T07:52:44.814Z,982.33
2019-02-18T07:53:45.042Z,982.37
2019-02-18T07:55:49.220Z,982.36
2019-02-18T07:56:49.463Z,982.43
2019-02-18T07:58:53.645Z,982.45
2019-02-18T07:59:53.886Z,982.48
2019-02-18T08:01:58.043Z,982.41
2019-02-18T08:02:58.295Z,982.53
2019-02-18T08:05:02.654Z,982.48
2019-02-18T08:06:02.710Z,982.55
2019-02-18T08:07:55.830Z,982.68
2019-02-18T08:08:56.073Z,983.08
2019-02-18T08:11:00.235Z,982.87
2019-02-18T08:12:00.477Z,982.57
2019-02-18T08:14:04.659Z,982.30
2019-02-18T08:15:04.903Z,982.24
2019-02-18T08:17:09.070Z,982.21
2019-02-18T08:18:09.312Z,982.23
2019-02-18T08:20:13.495Z,982.76
2019-02-18T08:21:13.801Z,983.87
2019-02-18T08:23:17.925Z,984.55
2019-02-18T08:24:18.174Z,984.65
2019-02-18T08:26:22.340Z,984.95
2019-02-18T08:27:22.583Z,984.99
2019-02-18T08:29:26.768Z,984.81
2019-02-18T08:30:27.015Z,984.86
2019-02-18T08:32:31.181Z,984.90
2019-02-18T08:33:31.425Z,984.87
2019-02-18T08:35:35.615Z,984.92
2019-02-18T08:36:35.861Z,984.76
2019-02-18T08:38:40.058Z,984.72
2019-02-18T08:39:40.312Z,984.63
2019-02-18T08:41:44.476Z,984.48
2019-02-18T08:42:44.727Z,984.43
2019-02-18T08:44:48.918Z,984.27
2019-02-18T08:45:49.167Z,984.17
2019-02-18T08:47:42.268Z,984.08
2019-02-18T08:48:42.517Z,983.97
2019-02-18T08:50:46.709Z,983.75
2019-02-18T08:51:46.960Z,983.67
2019-02-18T08:53:51.135Z,983.58
2019-02-18T08:54:56.468Z,983.55
2019-02-18T08:56:55.576Z,983.48
2019-02-18T08:57:55.827Z,983.41
2019-02-18T09:00:00.020Z,983.40
2019-02-18T09:01:02.553Z,983.44
2019-02-18T09:03:04.445Z,983.29
2019-02-18T09:04:04.693Z,983.34
2019-02-18T09:06:08.887Z,983.29
2019-02-18T09:07:09.138Z,983.28
2019-02-18T09:09:13.311Z,983.18
2019-02-18T09:10:13.562Z,983.15
2019-02-18T09:12:17.756Z,983.15
2019-02-18T09:13:18.007Z,983.16
2019-02-18T09:15:22.206Z,983.17
2019-02-18T09:16:22.459Z,983.22
2019-02-18T09:18:26.629Z,983.23
2019-02-18T09:19:26.881Z,983.18
2019-02-18T09:21:31.075Z,983.17
2019-02-18T09:22:31.331Z,983.09
2019-02-18T09:24:35.501Z,982.71
2019-02-18T09:25:35.753Z,982.36
2019-02-18T09:27:28.881Z,982.15
2019-02-18T09:28:29.132Z,982.08
2019-02-18T09:30:34.343Z,982.08
2019-02-18T09:31:34.605Z,982.09
2019-02-18T09:33:38.766Z,982.02
2019-02-18T09:34:39.020Z,982.01
2019-02-18T09:36:43.244Z,981.98
2019-02-18T09:37:43.496Z,981.95
2019-02-18T09:39:47.672Z,981.91
2019-02-18T09:40:51.424Z,981.91
2019-02-18T09:42:52.124Z,981.93
2019-02-18T09:43:52.380Z,981.94
2019-02-18T09:45:56.589Z,981.95
2019-02-18T09:46:56.844Z,981.94
2019-02-18T09:49:01.022Z,981.94
2019-02-18T09:50:01.277Z,981.93
2019-02-18T09:52:05.478Z,982.16
2019-02-18T09:53:05.733Z,982.45
2019-02-18T09:55:09.915Z,982.59
2019-02-18T09:56:10.165Z,982.62
2019-02-18T09:58:03.316Z,982.60
2019-02-18T09:59:03.546Z,982.54
2019-02-18T10:01:07.750Z,982.52
2019-02-18T10:02:08.001Z,982.51
2019-02-18T10:04:12.186Z,982.47
2019-02-18T10:05:12.440Z,982.45
2019-02-18T10:07:16.650Z,982.39
2019-02-18T10:08:16.899Z,982.38
2019-02-18T10:10:21.079Z,982.36
2019-02-18T10:11:21.336Z,982.33
2019-02-18T10:13:25.550Z,982.31
2019-02-18T10:14:25.806Z,982.27
2019-02-18T10:16:30.013Z,982.21
2019-02-18T10:17:30.267Z,982.25
2019-02-18T10:19:34.450Z,982.19
2019-02-18T10:20:34.703Z,982.18
2019-02-18T10:22:38.907Z,982.24
2019-02-18T10:23:39.162Z,982.18
2019-02-18T10:25:43.340Z,982.16
2019-02-18T10:26:43.597Z,982.17
2019-02-18T10:28:47.803Z,982.10
2019-02-18T10:29:48.063Z,982.05
2019-02-18T10:31:52.274Z,982.02
2019-02-18T10:32:52.530Z,982.00
2019-02-18T10:34:56.716Z,981.97
2019-02-18T10:35:56.972Z,981.97
2019-02-18T10:37:55.253Z,981.95
2019-02-18T10:38:50.361Z,981.98
2019-02-18T10:40:54.541Z,981.99
2019-02-18T10:41:54.799Z,981.97
2019-02-18T10:43:59.002Z,981.95
2019-02-18T10:44:59.258Z,981.95
2019-02-18T10:47:03.550Z,981.94
2019-02-18T10:48:03.814Z,981.94
2019-02-18T10:50:07.983Z,981.89
2019-02-18T10:51:08.242Z,981.90
2019-02-18T10:53:12.446Z,981.85
2019-02-18T10:54:12.703Z,981.86
2019-02-18T10:56:16.884Z,981.83
2019-02-18T10:57:17.141Z,981.78
2019-02-18T10:59:21.346Z,981.75
2019-02-18T11:00:21.602Z,981.72
2019-02-18T11:02:25.813Z,981.69
2019-02-18T11:03:26.068Z,981.64
2019-02-18T11:05:30.262Z,981.69
2019-02-18T11:06:30.515Z,981.65
2019-02-18T11:08:34.723Z,981.64
2019-02-18T11:09:34.981Z,981.63
2019-02-18T11:11:39.170Z,981.56
2019-02-18T11:12:39.431Z,981.57
2019-02-18T11:14:43.641Z,981.54
2019-02-18T11:15:43.895Z,981.50
2019-02-18T11:17:39.212Z,981.46
2019-02-18T11:18:37.299Z,981.46
2019-02-18T11:20:41.487Z,981.41
2019-02-18T11:21:41.742Z,981.36
2019-02-18T11:23:45.951Z,981.26
2019-02-18T11:24:46.210Z,981.22
2019-02-18T11:26:50.390Z,981.20
2019-02-18T11:27:50.645Z,981.12
2019-02-18T11:29:54.847Z,981.16
2019-02-18T11:30:55.103Z,981.18
2019-02-18T11:33:00.316Z,981.09
2019-02-18T11:34:00.574Z,981.06
2019-02-18T11:36:04.763Z,980.97
2019-02-18T11:37:05.015Z,981.00
2019-02-18T11:39:10.236Z,980.95
2019-02-18T11:40:10.493Z,980.90
2019-02-18T11:42:14.695Z,980.96
2019-02-18T11:43:14.951Z,980.93
2019-02-18T11:45:19.137Z,981.01
2019-02-18T11:46:19.391Z,980.94
2019-02-18T11:48:23.593Z,980.77
2019-02-18T11:49:23.848Z,980.69
2019-02-18T11:51:28.051Z,980.41
2019-02-18T11:52:28.306Z,980.45
2019-02-18T11:54:32.485Z,980.38
2019-02-18T11:55:32.738Z,980.43
2019-02-18T11:57:25.996Z,980.37
2019-02-18T11:58:26.247Z,980.36
2019-02-18T12:00:30.428Z,980.35
2019-02-18T12:01:30.682Z,980.31
2019-02-18T12:03:34.885Z,980.32
2019-02-18T12:04:35.139Z,980.31
2019-02-18T12:06:39.333Z,980.30
2019-02-18T12:07:39.590Z,980.34
2019-02-18T12:09:43.768Z,980.32
2019-02-18T12:10:44.026Z,980.31
2019-02-18T12:12:48.227Z,980.23
2019-02-18T12:13:48.478Z,980.25
2019-02-18T12:15:52.655Z,980.25
2019-02-18T12:16:52.917Z,980.27
2019-02-18T12:18:57.113Z,980.18
2019-02-18T12:19:57.363Z,980.14
2019-02-18T12:22:01.568Z,980.14
2019-02-18T12:23:01.819Z,980.10
2019-02-18T12:25:05.999Z,980.01
2019-02-18T12:26:06.251Z,980.01
2019-02-18T12:27:59.375Z,979.97
2019-02-18T12:28:59.630Z,979.95
2019-02-18T12:31:03.814Z,979.89
2019-02-18T12:32:04.088Z,979.90
2019-02-18T12:34:08.292Z,979.86
2019-02-18T12:35:08.555Z,979.84
2019-02-18T12:37:12.727Z,979.87
2019-02-18T12:38:12.992Z,979.75
2019-02-18T12:40:17.195Z,979.80
2019-02-18T12:41:17.451Z,979.77
2019-02-18T12:43:21.647Z,979.71
2019-02-18T12:44:21.905Z,979.70
2019-02-18T12:46:26.087Z,979.69
2019-02-18T12:47:26.341Z,979.64
2019-02-18T12:49:30.534Z,979.56
2019-02-18T12:50:30.793Z,979.63
2019-02-18T12:52:34.971Z,979.53
2019-02-18T12:53:35.223Z,979.56
2019-02-18T12:55:39.424Z,979.47
2019-02-18T12:56:39.674Z,979.46
2019-02-18T12:58:54.277Z,979.50
2019-02-18T12:59:44.166Z,979.43
2019-02-18T13:01:48.318Z,979.40
2019-02-18T13:02:48.570Z,979.38
2019-02-18T13:04:52.771Z,979.38
2019-02-18T13:05:53.022Z,979.35
2019-02-18T13:07:46.131Z,979.33
2019-02-18T13:08:46.382Z,979.39
2019-02-18T13:10:50.579Z,979.23
2019-02-18T13:11:58.748Z,979.28
2019-02-18T13:13:55.029Z,979.22
2019-02-18T13:14:55.284Z,979.18
2019-02-18T13:16:59.479Z,979.17
2019-02-18T13:20:03.924Z,979.13
2019-02-18T13:21:04.175Z,979.10
2019-02-18T13:23:08.383Z,979.12
2019-02-18T13:24:08.631Z,979.13
2019-02-18T13:26:12.947Z,979.08
2019-02-18T13:27:13.198Z,979.06
2019-02-18T13:29:17.405Z,979.06
2019-02-18T13:30:17.696Z,979.06
2019-02-18T13:32:21.951Z,979.09
2019-02-18T13:33:22.195Z,979.02
2019-02-18T13:35:26.396Z,979.04
2019-02-18T13:36:26.715Z,979.02
2019-02-18T13:38:30.918Z,978.99
2019-02-18T13:39:31.171Z,978.99
2019-02-18T13:41:36.875Z,978.96
2019-02-18T13:42:35.696Z,978.95
2019-02-18T13:44:39.873Z,979.03
2019-02-18T13:45:40.126Z,978.99
2019-02-18T13:47:33.255Z,978.93
2019-02-18T13:48:33.507Z,978.94
2019-02-18T13:50:37.717Z,978.91
2019-02-18T13:51:37.957Z,978.90
2019-02-18T13:53:42.147Z,978.86
2019-02-18T13:54:42.395Z,978.84
2019-02-18T13:56:46.599Z,978.82
2019-02-18T13:57:46.853Z,978.81
2019-02-18T13:59:51.040Z,978.79
2019-02-18T14:00:51.294Z,978.79
2019-02-18T14:02:55.496Z,978.80
2019-02-18T14:03:55.750Z,978.77
2019-02-18T14:05:59.963Z,978.73
2019-02-18T14:07:00.214Z,978.82
2019-02-18T14:09:04.395Z,978.81
2019-02-18T14:10:04.647Z,978.79
2019-02-18T14:12:15.882Z,978.81
2019-02-18T14:13:09.100Z,978.81
2019-02-18T14:15:13.282Z,978.74
2019-02-18T14:16:13.530Z,978.84
2019-02-18T14:18:06.662Z,978.76
2019-02-18T14:19:06.911Z,978.76
2019-02-18T14:21:11.096Z,978.74
2019-02-18T14:22:11.349Z,978.73
2019-02-18T14:24:15.554Z,978.73
2019-02-18T14:25:15.849Z,978.78
2019-02-18T14:27:20.065Z,978.70
2019-02-18T14:28:20.318Z,978.74
2019-02-18T14:30:24.520Z,978.69
2019-02-18T14:31:24.827Z,978.71
2019-02-18T14:33:29.079Z,978.68
2019-02-18T14:34:29.362Z,978.68
2019-02-18T14:36:34.575Z,978.69
2019-02-18T14:37:34.831Z,978.73
2019-02-18T14:39:39.025Z,978.71
2019-02-18T14:40:39.455Z,978.70
2019-02-18T14:42:43.714Z,978.72
2019-02-18T14:43:43.997Z,978.70
2019-02-18T14:45:48.183Z,978.70
2019-02-18T14:46:48.431Z,978.65
2019-02-18T14:48:53.131Z,978.66
2019-02-18T14:49:53.408Z,978.64
2019-02-18T14:51:57.592Z,978.64
2019-02-18T14:52:57.900Z,978.62
2019-02-18T14:55:02.154Z,978.58
2019-02-18T14:56:02.446Z,978.60
2019-02-18T14:57:56.644Z,978.56
2019-02-18T14:58:56.918Z,978.57
2019-02-18T15:01:01.135Z,978.59
2019-02-18T15:02:01.415Z,978.61
2019-02-18T15:04:05.620Z,978.58
2019-02-18T15:05:05.905Z,978.62
2019-02-18T15:07:10.130Z,978.56
2019-02-18T15:08:10.433Z,978.60
2019-02-18T15:10:14.640Z,978.56
2019-02-18T15:11:14.928Z,978.54
2019-02-18T15:13:20.218Z,978.51
2019-02-18T15:14:20.507Z,978.46
2019-02-18T15:16:24.732Z,978.46
2019-02-18T15:17:24.984Z,978.42
2019-02-18T15:19:29.258Z,978.41
2019-02-18T15:20:29.504Z,978.34
2019-02-18T15:22:33.767Z,978.33
2019-02-18T15:23:34.014Z,978.31
2019-02-18T15:25:38.192Z,978.28
2019-02-18T15:26:38.447Z,978.29
2019-02-18T15:28:42.716Z,978.25
2019-02-18T15:29:42.987Z,978.26
2019-02-18T15:31:47.213Z,978.21
2019-02-18T15:32:47.465Z,978.23
2019-02-18T15:34:51.661Z,978.17
2019-02-18T15:35:51.911Z,978.19
2019-02-18T15:37:45.013Z,978.15
2019-02-18T15:38:45.263Z,978.16
2019-02-18T15:40:49.464Z,978.16
2019-02-18T15:41:49.711Z,978.16
2019-02-18T15:43:53.918Z,978.12
2019-02-18T15:44:54.168Z,978.10
2019-02-18T15:46:58.350Z,978.11
2019-02-18T15:48:01.652Z,978.11
2019-02-18T15:50:02.795Z,978.04
2019-02-18T15:51:03.042Z,978.02
2019-02-18T15:53:07.219Z,978.00
2019-02-18T15:54:07.467Z,977.94
2019-02-18T15:56:11.664Z,977.92
2019-02-18T15:57:11.916Z,977.87
2019-02-18T15:59:16.092Z,977.83
2019-02-18T16:00:16.339Z,977.80
2019-02-18T16:02:20.531Z,977.75
2019-02-18T16:03:20.777Z,977.71
2019-02-18T16:05:24.970Z,977.68
2019-02-18T16:06:25.217Z,977.63
2019-02-18T16:08:29.385Z,977.65
2019-02-18T16:09:29.629Z,977.68
2019-02-18T16:11:33.817Z,977.64
2019-02-18T16:12:34.064Z,977.62
2019-02-18T16:14:38.230Z,977.54
2019-02-18T16:15:38.471Z,977.53
2019-02-18T16:17:31.596Z,977.54
2019-02-18T16:18:31.832Z,977.51
2019-02-18T16:20:35.993Z,977.48
2019-02-18T16:21:36.233Z,977.42
2019-02-18T16:23:40.418Z,977.42
2019-02-18T16:24:40.657Z,977.38
2019-02-18T16:26:44.836Z,977.35
2019-02-18T16:27:45.078Z,977.34
2019-02-18T16:29:49.234Z,977.35
2019-02-18T16:30:49.477Z,977.33
2019-02-18T16:32:53.650Z,977.34
2019-02-18T16:33:53.894Z,977.37
2019-02-18T16:35:58.084Z,977.31
2019-02-18T16:36:58.325Z,977.28
2019-02-18T16:39:02.481Z,977.28
2019-02-18T16:40:02.719Z,977.28
2019-02-18T16:42:06.901Z,977.25
2019-02-18T16:43:07.137Z,977.27
2019-02-18T16:45:11.291Z,977.20
2019-02-18T16:46:11.530Z,977.21
2019-02-18T16:48:04.635Z,977.27
2019-02-18T16:49:04.875Z,977.24
2019-02-18T16:51:09.025Z,977.21
2019-02-18T16:52:09.272Z,977.21
2019-02-18T16:54:13.445Z,977.24
2019-02-18T16:55:13.689Z,977.19
2019-02-18T16:57:17.857Z,977.20
2019-02-18T16:58:18.103Z,977.17
2019-02-18T17:00:22.253Z,977.18
2019-02-18T17:01:22.489Z,977.15
2019-02-18T17:03:26.666Z,977.15
2019-02-18T17:04:27.351Z,977.16
2019-02-18T17:06:31.056Z,977.16
2019-02-18T17:07:31.293Z,977.18
2019-02-18T17:09:35.464Z,977.23
2019-02-18T17:10:35.706Z,977.24
2019-02-18T17:12:39.888Z,977.27
2019-02-18T17:13:40.119Z,977.25
2019-02-18T17:15:44.272Z,977.27
2019-02-18T17:16:44.510Z,977.27
2019-02-18T17:18:48.689Z,977.30
2019-02-18T17:19:48.924Z,977.26
2019-02-18T17:21:53.074Z,977.21
2019-02-18T17:22:53.311Z,977.21
2019-02-18T17:24:57.480Z,977.22
2019-02-18T17:25:57.718Z,977.21
2019-02-18T17:27:50.808Z,977.22
2019-02-18T17:28:51.033Z,977.22
2019-02-18T17:30:55.204Z,977.15
2019-02-18T17:31:55.438Z,977.16
2019-02-18T17:33:59.610Z,977.17
2019-02-18T17:34:59.848Z,977.17
2019-02-18T17:37:03.998Z,977.18
2019-02-18T17:38:04.242Z,977.18
2019-02-18T17:40:08.406Z,977.19
2019-02-18T17:41:08.645Z,977.18
2019-02-18T17:43:16.507Z,977.19
2019-02-18T17:44:20.007Z,977.16
2019-02-18T17:46:17.207Z,977.13
2019-02-18T17:47:17.445Z,977.13
2019-02-18T17:49:21.616Z,977.10
2019-02-18T17:50:21.855Z,977.10
2019-02-18T17:52:26.004Z,977.08
2019-02-18T17:53:26.243Z,977.06
2019-02-18T17:55:30.411Z,977.10
2019-02-18T17:56:30.653Z,977.07
2019-02-18T17:58:34.828Z,977.10
2019-02-18T17:59:35.061Z,977.12
2019-02-18T18:01:39.232Z,977.11
2019-02-18T18:02:39.474Z,977.10
2019-02-18T18:04:43.635Z,977.08
2019-02-18T18:05:44.649Z,977.10
2019-02-18T18:07:36.972Z,977.10
2019-02-18T18:08:37.211Z,977.12
2019-02-18T18:10:41.382Z,977.12
2019-02-18T18:11:41.648Z,977.10
2019-02-18T18:13:45.826Z,977.02
2019-02-18T18:14:46.092Z,977.00
2019-02-18T18:16:50.319Z,977.05
2019-02-18T18:17:50.574Z,977.01
2019-02-18T18:19:54.779Z,976.96
2019-02-18T18:20:55.020Z,976.96
2019-02-18T18:22:59.164Z,976.92
2019-02-18T18:23:59.406Z,976.90
2019-02-18T18:26:03.622Z,976.86
2019-02-18T18:27:03.931Z,976.84
2019-02-18T18:29:08.109Z,976.82
2019-02-18T18:30:08.391Z,976.84
2019-02-18T18:32:12.556Z,976.87
2019-02-18T18:33:12.834Z,976.89
2019-02-18T18:35:17.079Z,976.85
2019-02-18T18:36:17.312Z,976.83
2019-02-18T18:38:22.776Z,976.80
2019-02-18T18:39:21.701Z,976.81
2019-02-18T18:41:25.864Z,976.74
2019-02-18T18:42:26.100Z,976.73
2019-02-18T18:44:30.242Z,976.71
2019-02-18T18:45:30.480Z,976.66
2019-02-18T18:47:23.582Z,976.70
2019-02-18T18:48:23.816Z,976.71
2019-02-18T18:50:28.045Z,976.70
2019-02-18T18:51:28.271Z,976.63
2019-02-18T18:53:32.417Z,976.64
2019-02-18T18:54:32.703Z,976.66
2019-02-18T18:56:36.891Z,976.65
2019-02-18T18:57:37.130Z,976.65
2019-02-18T18:59:41.307Z,976.65
2019-02-18T19:00:41.575Z,976.64
2019-02-18T19:02:45.822Z,976.63
2019-02-18T19:03:46.066Z,976.58
2019-02-18T19:05:50.235Z,976.60
2019-02-18T19:06:50.472Z,976.61